Williamsburg, Missouri
Current Conditions -  °F | °C
As of 1:54 AM on Saturday 25 Oct 2014 (Local Time) from KCOU Reporting Station
Clear Clear  
Wind Chill: 63°   Ceiling: Unl
Heat Index: 63°   Visibility: 10mi
Dew Point: 60°   Wind: 7mph
Humidity: 90%   Direction: 250°WSW
Pressure: 30"   Gusts: NA
Location:  38.92°N, 91.7°W
Report Text: KCOU 250654Z AUTO 25006KT 10SM CLR 17/16 A3000 RMK AO2 SLP154 T01720156
Loading
Personal Weather Stations






























Interactive Weather Map
Tropical Storm Tracking
New forecast layout! Learn more

10-Day Weather Forecast

Advertisements
Track Severe Weather on mobile